sensor_id;sensor_type;location;lat;lon;timestamp;P1;durP1;ratioP1;P2;durP2;ratioP2
12554;SDS011;6343;50.868;4.700;2023-05-07T00:01:58;5.77;;;3.03;;
12554;SDS011;6343;50.868;4.700;2023-05-07T00:04:25;5.53;;;3.83;;
12554;SDS011;6343;50.868;4.700;2023-05-07T00:06:51;8.10;;;3.73;;
12554;SDS011;6343;50.868;4.700;2023-05-07T00:09:17;5.93;;;3.47;;
12554;SDS011;6343;50.868;4.700;2023-05-07T00:11:43;7.70;;;3.73;;
12554;SDS011;6343;50.868;4.700;2023-05-07T00:14:10;6.87;;;3.87;;
12554;SDS011;6343;50.868;4.700;2023-05-07T00:16:36;6.37;;;3.73;;
12554;SDS011;6343;50.868;4.700;2023-05-07T00:19:03;9.03;;;3.87;;
12554;SDS011;6343;50.868;4.700;2023-05-07T00:21:29;9.83;;;4.20;;
12554;SDS011;6343;50.868;4.700;2023-05-07T00:23:55;7.47;;;4.10;;
12554;SDS011;6343;50.868;4.700;2023-05-07T00:26:21;6.30;;;4.10;;
12554;SDS011;6343;50.868;4.700;2023-05-07T00:28:48;8.20;;;3.47;;
12554;SDS011;6343;50.868;4.700;2023-05-07T00:31:14;21.77;;;4.30;;
12554;SDS011;6343;50.868;4.700;2023-05-07T00:33:40;7.73;;;3.80;;
12554;SDS011;6343;50.868;4.700;2023-05-07T00:36:06;9.83;;;5.03;;
12554;SDS011;6343;50.868;4.700;2023-05-07T00:38:32;5.93;;;3.80;;
12554;SDS011;6343;50.868;4.700;2023-05-07T00:40:58;11.93;;;5.00;;
12554;SDS011;6343;50.868;4.700;2023-05-07T00:43:25;6.60;;;3.50;;
12554;SDS011;6343;50.868;4.700;2023-05-07T00:45:52;7.27;;;3.57;;
12554;SDS011;6343;50.868;4.700;2023-05-07T00:48:18;8.23;;;3.57;;
12554;SDS011;6343;50.868;4.700;2023-05-07T00:50:44;6.97;;;3.77;;
12554;SDS011;6343;50.868;4.700;2023-05-07T00:53:12;7.20;;;3.93;;
12554;SDS011;6343;50.868;4.700;2023-05-07T00:55:38;6.17;;;3.83;;
12554;SDS011;6343;50.868;4.700;2023-05-07T00:58:04;6.70;;;3.83;;
12554;SDS011;6343;50.868;4.700;2023-05-07T01:00:31;9.63;;;4.40;;
12554;SDS011;6343;50.868;4.700;2023-05-07T01:02:57;12.70;;;5.63;;
12554;SDS011;6343;50.868;4.700;2023-05-07T01:05:24;9.13;;;6.17;;
12554;SDS011;6343;50.868;4.700;2023-05-07T01:07:50;7.40;;;4.97;;
12554;SDS011;6343;50.868;4.700;2023-05-07T01:10:17;5.97;;;4.07;;
12554;SDS011;6343;50.868;4.700;2023-05-07T01:12:43;6.90;;;3.80;;
12554;SDS011;6343;50.868;4.700;2023-05-07T01:15:10;6.13;;;4.17;;
12554;SDS011;6343;50.868;4.700;2023-05-07T01:17:38;5.77;;;4.70;;
12554;SDS011;6343;50.868;4.700;2023-05-07T01:20:05;10.77;;;5.07;;
12554;SDS011;6343;50.868;4.700;2023-05-07T01:22:32;8.60;;;4.33;;
12554;SDS011;6343;50.868;4.700;2023-05-07T01:24:59;10.43;;;5.07;;
12554;SDS011;6343;50.868;4.700;2023-05-07T01:27:26;7.93;;;6.10;;
12554;SDS011;6343;50.868;4.700;2023-05-07T01:29:53;7.13;;;5.23;;
12554;SDS011;6343;50.868;4.700;2023-05-07T01:32:21;13.57;;;6.43;;
12554;SDS011;6343;50.868;4.700;2023-05-07T01:34:49;8.10;;;6.10;;
12554;SDS011;6343;50.868;4.700;2023-05-07T01:37:16;9.73;;;6.30;;
12554;SDS011;6343;50.868;4.700;2023-05-07T01:39:43;6.73;;;5.77;;
12554;SDS011;6343;50.868;4.700;2023-05-07T01:42:10;8.50;;;5.93;;
12554;SDS011;6343;50.868;4.700;2023-05-07T01:44:36;6.67;;;5.30;;
12554;SDS011;6343;50.868;4.700;2023-05-07T01:47:02;9.17;;;5.97;;
12554;SDS011;6343;50.868;4.700;2023-05-07T01:49:28;10.30;;;5.10;;
12554;SDS011;6343;50.868;4.700;2023-05-07T01:51:55;9.17;;;5.90;;
12554;SDS011;6343;50.868;4.700;2023-05-07T01:54:25;9.37;;;6.00;;
12554;SDS011;6343;50.868;4.700;2023-05-07T01:56:52;6.63;;;4.80;;
12554;SDS011;6343;50.868;4.700;2023-05-07T01:59:18;8.13;;;4.87;;
12554;SDS011;6343;50.868;4.700;2023-05-07T02:01:45;9.00;;;4.90;;
12554;SDS011;6343;50.868;4.700;2023-05-07T02:04:11;8.93;;;5.27;;
12554;SDS011;6343;50.868;4.700;2023-05-07T02:06:37;6.57;;;4.40;;
12554;SDS011;6343;50.868;4.700;2023-05-07T02:09:03;8.10;;;4.63;;
12554;SDS011;6343;50.868;4.700;2023-05-07T02:11:29;7.93;;;4.67;;
12554;SDS011;6343;50.868;4.700;2023-05-07T02:13:55;8.37;;;5.03;;
12554;SDS011;6343;50.868;4.700;2023-05-07T02:16:21;5.87;;;4.53;;
12554;SDS011;6343;50.868;4.700;2023-05-07T02:18:48;7.33;;;5.00;;
12554;SDS011;6343;50.868;4.700;2023-05-07T02:21:14;7.90;;;5.57;;
12554;SDS011;6343;50.868;4.700;2023-05-07T02:23:40;10.53;;;5.43;;
12554;SDS011;6343;50.868;4.700;2023-05-07T02:26:07;9.77;;;5.80;;
12554;SDS011;6343;50.868;4.700;2023-05-07T02:28:33;16.23;;;6.20;;
12554;SDS011;6343;50.868;4.700;2023-05-07T02:31:02;9.30;;;6.40;;
12554;SDS011;6343;50.868;4.700;2023-05-07T02:33:28;13.53;;;6.87;;
12554;SDS011;6343;50.868;4.700;2023-05-07T02:35:54;11.13;;;6.13;;
12554;SDS011;6343;50.868;4.700;2023-05-07T02:38:20;14.67;;;6.90;;
12554;SDS011;6343;50.868;4.700;2023-05-07T02:40:46;10.53;;;6.20;;
12554;SDS011;6343;50.868;4.700;2023-05-07T02:43:12;11.27;;;6.23;;
12554;SDS011;6343;50.868;4.700;2023-05-07T02:45:38;11.73;;;6.40;;
12554;SDS011;6343;50.868;4.700;2023-05-07T02:48:05;7.93;;;5.73;;
12554;SDS011;6343;50.868;4.700;2023-05-07T02:50:31;7.33;;;5.87;;
12554;SDS011;6343;50.868;4.700;2023-05-07T02:52:57;13.47;;;6.00;;
12554;SDS011;6343;50.868;4.700;2023-05-07T02:55:24;11.27;;;7.00;;
12554;SDS011;6343;50.868;4.700;2023-05-07T02:57:50;13.43;;;7.57;;
12554;SDS011;6343;50.868;4.700;2023-05-07T03:00:17;9.80;;;7.03;;
12554;SDS011;6343;50.868;4.700;2023-05-07T03:02:44;11.30;;;7.20;;
12554;SDS011;6343;50.868;4.700;2023-05-07T03:05:10;9.83;;;7.93;;
12554;SDS011;6343;50.868;4.700;2023-05-07T03:07:37;10.00;;;7.20;;
12554;SDS011;6343;50.868;4.700;2023-05-07T03:10:03;10.30;;;6.93;;
12554;SDS011;6343;50.868;4.700;2023-05-07T03:12:30;10.43;;;7.57;;
12554;SDS011;6343;50.868;4.700;2023-05-07T03:14:56;10.97;;;7.10;;
12554;SDS011;6343;50.868;4.700;2023-05-07T03:17:22;7.93;;;7.10;;
12554;SDS011;6343;50.868;4.700;2023-05-07T03:19:48;11.40;;;6.90;;
12554;SDS011;6343;50.868;4.700;2023-05-07T03:22:14;8.70;;;7.10;;
12554;SDS011;6343;50.868;4.700;2023-05-07T03:24:41;8.43;;;6.17;;
12554;SDS011;6343;50.868;4.700;2023-05-07T03:27:07;6.53;;;5.20;;
12554;SDS011;6343;50.868;4.700;2023-05-07T03:29:33;9.30;;;5.30;;
12554;SDS011;6343;50.868;4.700;2023-05-07T03:31:59;8.67;;;4.90;;
12554;SDS011;6343;50.868;4.700;2023-05-07T03:34:25;9.40;;;5.07;;
12554;SDS011;6343;50.868;4.700;2023-05-07T03:36:52;8.83;;;5.07;;
12554;SDS011;6343;50.868;4.700;2023-05-07T03:39:18;7.47;;;4.20;;
12554;SDS011;6343;50.868;4.700;2023-05-07T03:41:44;5.93;;;4.30;;
12554;SDS011;6343;50.868;4.700;2023-05-07T03:44:10;9.57;;;4.47;;
12554;SDS011;6343;50.868;4.700;2023-05-07T03:46:36;7.07;;;4.50;;
12554;SDS011;6343;50.868;4.700;2023-05-07T03:49:02;8.63;;;4.67;;
12554;SDS011;6343;50.868;4.700;2023-05-07T03:51:28;6.60;;;4.87;;
12554;SDS011;6343;50.868;4.700;2023-05-07T03:53:54;6.90;;;4.20;;
12554;SDS011;6343;50.868;4.700;2023-05-07T03:56:22;8.43;;;4.23;;
12554;SDS011;6343;50.868;4.700;2023-05-07T03:58:51;9.90;;;4.43;;
12554;SDS011;6343;50.868;4.700;2023-05-07T04:01:17;9.93;;;4.17;;
12554;SDS011;6343;50.868;4.700;2023-05-07T04:03:43;6.43;;;4.37;;
12554;SDS011;6343;50.868;4.700;2023-05-07T04:06:09;12.53;;;5.23;;
12554;SDS011;6343;50.868;4.700;2023-05-07T04:08:36;7.20;;;4.63;;
12554;SDS011;6343;50.868;4.700;2023-05-07T04:11:02;5.93;;;4.83;;
12554;SDS011;6343;50.868;4.700;2023-05-07T04:13:29;7.97;;;4.67;;
12554;SDS011;6343;50.868;4.700;2023-05-07T04:15:55;6.93;;;4.37;;
12554;SDS011;6343;50.868;4.700;2023-05-07T04:18:21;10.97;;;4.63;;
12554;SDS011;6343;50.868;4.700;2023-05-07T04:20:48;7.83;;;4.73;;
12554;SDS011;6343;50.868;4.700;2023-05-07T04:23:17;6.73;;;5.00;;
12554;SDS011;6343;50.868;4.700;2023-05-07T04:25:43;8.40;;;4.67;;
12554;SDS011;6343;50.868;4.700;2023-05-07T04:28:10;9.37;;;4.37;;
12554;SDS011;6343;50.868;4.700;2023-05-07T04:30:36;9.57;;;4.70;;
12554;SDS011;6343;50.868;4.700;2023-05-07T04:33:02;7.43;;;4.50;;
12554;SDS011;6343;50.868;4.700;2023-05-07T04:35:28;7.53;;;4.90;;
12554;SDS011;6343;50.868;4.700;2023-05-07T04:37:54;12.00;;;5.30;;
12554;SDS011;6343;50.868;4.700;2023-05-07T04:40:21;12.60;;;7.07;;
12554;SDS011;6343;50.868;4.700;2023-05-07T04:42:47;8.03;;;4.93;;
12554;SDS011;6343;50.868;4.700;2023-05-07T04:45:13;10.07;;;6.63;;
12554;SDS011;6343;50.868;4.700;2023-05-07T04:47:39;11.77;;;7.23;;
12554;SDS011;6343;50.868;4.700;2023-05-07T04:50:08;12.07;;;6.60;;
12554;SDS011;6343;50.868;4.700;2023-05-07T04:52:35;10.50;;;6.60;;
12554;SDS011;6343;50.868;4.700;2023-05-07T04:55:01;9.70;;;6.70;;
12554;SDS011;6343;50.868;4.700;2023-05-07T04:57:28;8.33;;;6.43;;
12554;SDS011;6343;50.868;4.700;2023-05-07T04:59:54;10.10;;;7.30;;
12554;SDS011;6343;50.868;4.700;2023-05-07T05:02:20;12.57;;;7.37;;
12554;SDS011;6343;50.868;4.700;2023-05-07T05:04:46;10.70;;;8.20;;
12554;SDS011;6343;50.868;4.700;2023-05-07T05:07:12;12.07;;;9.20;;
12554;SDS011;6343;50.868;4.700;2023-05-07T05:09:38;11.80;;;9.13;;
12554;SDS011;6343;50.868;4.700;2023-05-07T05:12:04;13.27;;;9.90;;
12554;SDS011;6343;50.868;4.700;2023-05-07T05:14:32;12.63;;;9.43;;
12554;SDS011;6343;50.868;4.700;2023-05-07T05:16:58;10.90;;;9.80;;
12554;SDS011;6343;50.868;4.700;2023-05-07T05:19:24;14.10;;;10.00;;
12554;SDS011;6343;50.868;4.700;2023-05-07T05:21:50;14.63;;;9.73;;
12554;SDS011;6343;50.868;4.700;2023-05-07T05:24:16;10.73;;;9.57;;
12554;SDS011;6343;50.868;4.700;2023-05-07T05:26:42;11.20;;;9.63;;
12554;SDS011;6343;50.868;4.700;2023-05-07T05:29:09;12.43;;;10.40;;
12554;SDS011;6343;50.868;4.700;2023-05-07T05:31:35;13.43;;;10.27;;
12554;SDS011;6343;50.868;4.700;2023-05-07T05:34:02;14.00;;;10.33;;
12554;SDS011;6343;50.868;4.700;2023-05-07T05:36:28;12.47;;;9.57;;
12554;SDS011;6343;50.868;4.700;2023-05-07T05:38:55;15.70;;;10.03;;
12554;SDS011;6343;50.868;4.700;2023-05-07T05:41:21;10.77;;;9.57;;
12554;SDS011;6343;50.868;4.700;2023-05-07T05:43:48;13.87;;;10.10;;
12554;SDS011;6343;50.868;4.700;2023-05-07T05:46:14;11.00;;;9.30;;
12554;SDS011;6343;50.868;4.700;2023-05-07T05:48:40;14.97;;;9.63;;
12554;SDS011;6343;50.868;4.700;2023-05-07T05:51:07;13.13;;;9.40;;
12554;SDS011;6343;50.868;4.700;2023-05-07T05:53:33;13.07;;;9.93;;
12554;SDS011;6343;50.868;4.700;2023-05-07T05:55:59;13.27;;;9.53;;
12554;SDS011;6343;50.868;4.700;2023-05-07T05:58:25;15.10;;;8.70;;
12554;SDS011;6343;50.868;4.700;2023-05-07T06:00:51;11.87;;;8.17;;
12554;SDS011;6343;50.868;4.700;2023-05-07T06:03:18;11.63;;;8.50;;
12554;SDS011;6343;50.868;4.700;2023-05-07T06:05:44;13.87;;;8.53;;
12554;SDS011;6343;50.868;4.700;2023-05-07T06:08:10;11.77;;;8.10;;
12554;SDS011;6343;50.868;4.700;2023-05-07T06:10:37;10.93;;;7.50;;
12554;SDS011;6343;50.868;4.700;2023-05-07T06:13:03;11.97;;;7.40;;
12554;SDS011;6343;50.868;4.700;2023-05-07T06:15:29;11.00;;;6.33;;
12554;SDS011;6343;50.868;4.700;2023-05-07T06:17:55;11.43;;;8.00;;
12554;SDS011;6343;50.868;4.700;2023-05-07T06:20:22;8.80;;;6.63;;
12554;SDS011;6343;50.868;4.700;2023-05-07T06:22:48;10.50;;;6.63;;
12554;SDS011;6343;50.868;4.700;2023-05-07T06:25:15;13.70;;;6.80;;
12554;SDS011;6343;50.868;4.700;2023-05-07T06:27:41;12.10;;;6.97;;
12554;SDS011;6343;50.868;4.700;2023-05-07T06:30:07;12.83;;;7.40;;
12554;SDS011;6343;50.868;4.700;2023-05-07T06:32:34;9.97;;;6.90;;
12554;SDS011;6343;50.868;4.700;2023-05-07T06:35:00;9.13;;;5.80;;
12554;SDS011;6343;50.868;4.700;2023-05-07T06:37:26;15.20;;;5.77;;
12554;SDS011;6343;50.868;4.700;2023-05-07T06:39:52;10.77;;;5.80;;
12554;SDS011;6343;50.868;4.700;2023-05-07T06:42:18;11.37;;;5.77;;
12554;SDS011;6343;50.868;4.700;2023-05-07T06:44:44;10.80;;;5.43;;
12554;SDS011;6343;50.868;4.700;2023-05-07T06:47:10;9.53;;;5.77;;
12554;SDS011;6343;50.868;4.700;2023-05-07T06:49:36;13.50;;;5.50;;
12554;SDS011;6343;50.868;4.700;2023-05-07T06:52:02;7.37;;;4.90;;
12554;SDS011;6343;50.868;4.700;2023-05-07T06:54:28;9.43;;;4.80;;
12554;SDS011;6343;50.868;4.700;2023-05-07T06:59:18;10.47;;;4.90;;
12554;SDS011;6343;50.868;4.700;2023-05-07T07:01:44;8.47;;;4.90;;
12554;SDS011;6343;50.868;4.700;2023-05-07T07:04:10;8.63;;;4.73;;
12554;SDS011;6343;50.868;4.700;2023-05-07T07:06:37;9.60;;;4.93;;
12554;SDS011;6343;50.868;4.700;2023-05-07T07:09:03;22.90;;;18.17;;
12554;SDS011;6343;50.868;4.700;2023-05-07T07:11:29;9.23;;;4.40;;
12554;SDS011;6343;50.868;4.700;2023-05-07T07:13:55;8.30;;;4.10;;
12554;SDS011;6343;50.868;4.700;2023-05-07T07:16:21;14.07;;;4.57;;
12554;SDS011;6343;50.868;4.700;2023-05-07T07:18:47;8.40;;;4.83;;
12554;SDS011;6343;50.868;4.700;2023-05-07T07:21:14;10.07;;;4.87;;
12554;SDS011;6343;50.868;4.700;2023-05-07T07:23:40;14.57;;;4.80;;
12554;SDS011;6343;50.868;4.700;2023-05-07T07:26:06;10.67;;;4.30;;
12554;SDS011;6343;50.868;4.700;2023-05-07T07:28:32;7.60;;;4.50;;
12554;SDS011;6343;50.868;4.700;2023-05-07T07:30:58;6.57;;;4.03;;
12554;SDS011;6343;50.868;4.700;2023-05-07T07:33:24;10.50;;;5.20;;
12554;SDS011;6343;50.868;4.700;2023-05-07T07:35:51;8.73;;;5.10;;
12554;SDS011;6343;50.868;4.700;2023-05-07T07:38:17;7.10;;;3.80;;
12554;SDS011;6343;50.868;4.700;2023-05-07T07:40:43;8.73;;;4.67;;
12554;SDS011;6343;50.868;4.700;2023-05-07T07:43:09;10.17;;;4.13;;
12554;SDS011;6343;50.868;4.700;2023-05-07T07:45:35;7.53;;;3.97;;
12554;SDS011;6343;50.868;4.700;2023-05-07T07:48:26;7.47;;;3.67;;
12554;SDS011;6343;50.868;4.700;2023-05-07T07:50:52;7.30;;;3.37;;
12554;SDS011;6343;50.868;4.700;2023-05-07T07:53:18;8.67;;;4.23;;
12554;SDS011;6343;50.868;4.700;2023-05-07T07:55:45;8.40;;;3.50;;
12554;SDS011;6343;50.868;4.700;2023-05-07T07:58:11;7.90;;;3.10;;
12554;SDS011;6343;50.868;4.700;2023-05-07T08:00:37;7.13;;;3.03;;
12554;SDS011;6343;50.868;4.700;2023-05-07T08:03:03;4.70;;;2.63;;
12554;SDS011;6343;50.868;4.700;2023-05-07T08:05:30;9.97;;;2.90;;
12554;SDS011;6343;50.868;4.700;2023-05-07T08:07:56;8.43;;;2.87;;
12554;SDS011;6343;50.868;4.700;2023-05-07T08:10:23;8.33;;;2.97;;
12554;SDS011;6343;50.868;4.700;2023-05-07T08:12:50;6.67;;;3.00;;
12554;SDS011;6343;50.868;4.700;2023-05-07T08:15:16;6.73;;;3.00;;
12554;SDS011;6343;50.868;4.700;2023-05-07T08:17:42;8.20;;;3.30;;
12554;SDS011;6343;50.868;4.700;2023-05-07T08:20:09;8.77;;;3.23;;
12554;SDS011;6343;50.868;4.700;2023-05-07T08:22:35;5.67;;;3.07;;
12554;SDS011;6343;50.868;4.700;2023-05-07T08:25:02;7.47;;;3.20;;
12554;SDS011;6343;50.868;4.700;2023-05-07T08:27:28;12.00;;;3.27;;
12554;SDS011;6343;50.868;4.700;2023-05-07T08:29:54;5.30;;;3.10;;
12554;SDS011;6343;50.868;4.700;2023-05-07T08:32:20;10.20;;;3.93;;
12554;SDS011;6343;50.868;4.700;2023-05-07T08:34:47;10.93;;;3.77;;
12554;SDS011;6343;50.868;4.700;2023-05-07T08:37:13;6.47;;;3.00;;
12554;SDS011;6343;50.868;4.700;2023-05-07T08:39:39;5.40;;;3.07;;
12554;SDS011;6343;50.868;4.700;2023-05-07T08:42:05;7.10;;;3.27;;
12554;SDS011;6343;50.868;4.700;2023-05-07T08:44:35;6.93;;;2.63;;
12554;SDS011;6343;50.868;4.700;2023-05-07T08:47:04;9.00;;;3.70;;
12554;SDS011;6343;50.868;4.700;2023-05-07T08:49:32;10.80;;;3.60;;
12554;SDS011;6343;50.868;4.700;2023-05-07T08:51:59;5.53;;;3.10;;
12554;SDS011;6343;50.868;4.700;2023-05-07T08:54:25;5.00;;;3.00;;
12554;SDS011;6343;50.868;4.700;2023-05-07T08:56:52;6.43;;;2.93;;
12554;SDS011;6343;50.868;4.700;2023-05-07T08:59:18;6.93;;;3.03;;
12554;SDS011;6343;50.868;4.700;2023-05-07T09:01:44;6.57;;;3.63;;
12554;SDS011;6343;50.868;4.700;2023-05-07T09:04:10;8.70;;;3.03;;
12554;SDS011;6343;50.868;4.700;2023-05-07T09:06:37;6.40;;;3.13;;
12554;SDS011;6343;50.868;4.700;2023-05-07T09:09:06;7.47;;;2.90;;
12554;SDS011;6343;50.868;4.700;2023-05-07T09:11:33;5.33;;;2.77;;
12554;SDS011;6343;50.868;4.700;2023-05-07T09:13:59;6.10;;;2.90;;
12554;SDS011;6343;50.868;4.700;2023-05-07T09:16:29;5.10;;;3.03;;
12554;SDS011;6343;50.868;4.700;2023-05-07T09:18:57;6.83;;;3.63;;
12554;SDS011;6343;50.868;4.700;2023-05-07T09:21:23;6.43;;;3.20;;
12554;SDS011;6343;50.868;4.700;2023-05-07T09:23:53;4.97;;;3.10;;
12554;SDS011;6343;50.868;4.700;2023-05-07T09:26:23;5.87;;;3.30;;
12554;SDS011;6343;50.868;4.700;2023-05-07T09:28:50;5.73;;;3.43;;
12554;SDS011;6343;50.868;4.700;2023-05-07T09:31:16;7.07;;;3.33;;
12554;SDS011;6343;50.868;4.700;2023-05-07T09:33:42;6.53;;;3.70;;
12554;SDS011;6343;50.868;4.700;2023-05-07T09:36:08;9.03;;;3.40;;
12554;SDS011;6343;50.868;4.700;2023-05-07T09:38:35;8.17;;;3.50;;
12554;SDS011;6343;50.868;4.700;2023-05-07T09:41:02;8.27;;;3.50;;
12554;SDS011;6343;50.868;4.700;2023-05-07T09:43:31;5.53;;;3.43;;
12554;SDS011;6343;50.868;4.700;2023-05-07T09:46:00;8.17;;;3.97;;
12554;SDS011;6343;50.868;4.700;2023-05-07T09:48:28;6.90;;;3.70;;
12554;SDS011;6343;50.868;4.700;2023-05-07T09:50:55;7.20;;;3.53;;
12554;SDS011;6343;50.868;4.700;2023-05-07T09:53:25;6.53;;;3.60;;
12554;SDS011;6343;50.868;4.700;2023-05-07T09:55:52;6.90;;;3.40;;
12554;SDS011;6343;50.868;4.700;2023-05-07T09:58:18;7.30;;;3.30;;
12554;SDS011;6343;50.868;4.700;2023-05-07T10:00:45;4.17;;;3.40;;
12554;SDS011;6343;50.868;4.700;2023-05-07T10:03:11;5.83;;;3.03;;
12554;SDS011;6343;50.868;4.700;2023-05-07T10:05:39;5.43;;;2.90;;
12554;SDS011;6343;50.868;4.700;2023-05-07T10:08:06;3.30;;;2.60;;
12554;SDS011;6343;50.868;4.700;2023-05-07T10:10:32;6.23;;;2.93;;
12554;SDS011;6343;50.868;4.700;2023-05-07T10:12:59;7.80;;;3.13;;
12554;SDS011;6343;50.868;4.700;2023-05-07T10:15:26;7.33;;;2.90;;
12554;SDS011;6343;50.868;4.700;2023-05-07T10:17:54;6.57;;;2.87;;
12554;SDS011;6343;50.868;4.700;2023-05-07T10:20:21;6.03;;;3.10;;
12554;SDS011;6343;50.868;4.700;2023-05-07T10:22:47;4.03;;;2.57;;
12554;SDS011;6343;50.868;4.700;2023-05-07T10:27:40;8.60;;;3.67;;
12554;SDS011;6343;50.868;4.700;2023-05-07T10:30:12;4.63;;;3.20;;
12554;SDS011;6343;50.868;4.700;2023-05-07T10:32:48;5.17;;;3.20;;
12554;SDS011;6343;50.868;4.700;2023-05-07T10:35:25;5.67;;;3.43;;
12554;SDS011;6343;50.868;4.700;2023-05-07T10:37:52;5.73;;;3.30;;
12554;SDS011;6343;50.868;4.700;2023-05-07T10:40:19;6.67;;;3.80;;
12554;SDS011;6343;50.868;4.700;2023-05-07T10:42:56;7.27;;;3.57;;
12554;SDS011;6343;50.868;4.700;2023-05-07T10:45:23;7.43;;;3.90;;
12554;SDS011;6343;50.868;4.700;2023-05-07T10:48:08;7.50;;;3.37;;
12554;SDS011;6343;50.868;4.700;2023-05-07T10:50:35;4.23;;;2.80;;
12554;SDS011;6343;50.868;4.700;2023-05-07T10:53:43;4.63;;;2.57;;
12554;SDS011;6343;50.868;4.700;2023-05-07T10:58:38;6.07;;;3.07;;
12554;SDS011;6343;50.868;4.700;2023-05-07T11:01:04;3.63;;;2.70;;
12554;SDS011;6343;50.868;4.700;2023-05-07T11:03:30;8.27;;;2.70;;
12554;SDS011;6343;50.868;4.700;2023-05-07T11:06:09;5.80;;;2.77;;
12554;SDS011;6343;50.868;4.700;2023-05-07T11:08:57;11.77;;;2.57;;
12554;SDS011;6343;50.868;4.700;2023-05-07T11:14:09;6.20;;;2.50;;
12554;SDS011;6343;50.868;4.700;2023-05-07T11:16:35;6.70;;;2.40;;
12554;SDS011;6343;50.868;4.700;2023-05-07T11:19:03;6.10;;;1.83;;
12554;SDS011;6343;50.868;4.700;2023-05-07T11:21:33;4.87;;;1.97;;
12554;SDS011;6343;50.868;4.700;2023-05-07T11:24:00;4.93;;;1.70;;
12554;SDS011;6343;50.868;4.700;2023-05-07T11:26:27;5.07;;;2.00;;
12554;SDS011;6343;50.868;4.700;2023-05-07T11:28:53;6.20;;;1.93;;
12554;SDS011;6343;50.868;4.700;2023-05-07T11:31:23;6.03;;;2.00;;
12554;SDS011;6343;50.868;4.700;2023-05-07T11:33:51;5.23;;;1.83;;
12554;SDS011;6343;50.868;4.700;2023-05-07T11:36:17;4.93;;;1.90;;
12554;SDS011;6343;50.868;4.700;2023-05-07T11:38:44;4.17;;;1.80;;
12554;SDS011;6343;50.868;4.700;2023-05-07T11:41:10;4.23;;;1.90;;
12554;SDS011;6343;50.868;4.700;2023-05-07T11:43:36;3.77;;;2.00;;
12554;SDS011;6343;50.868;4.700;2023-05-07T11:46:08;3.57;;;1.83;;
12554;SDS011;6343;50.868;4.700;2023-05-07T11:48:35;4.63;;;2.00;;
12554;SDS011;6343;50.868;4.700;2023-05-07T11:51:01;5.00;;;1.97;;
12554;SDS011;6343;50.868;4.700;2023-05-07T11:53:34;5.07;;;1.70;;
12554;SDS011;6343;50.868;4.700;2023-05-07T11:56:00;5.23;;;1.90;;
12554;SDS011;6343;50.868;4.700;2023-05-07T11:58:26;6.60;;;1.83;;
12554;SDS011;6343;50.868;4.700;2023-05-07T12:00:53;4.57;;;1.80;;
12554;SDS011;6343;50.868;4.700;2023-05-07T12:03:19;2.83;;;1.53;;
12554;SDS011;6343;50.868;4.700;2023-05-07T12:05:46;3.10;;;1.60;;
12554;SDS011;6343;50.868;4.700;2023-05-07T12:08:16;3.50;;;1.73;;
12554;SDS011;6343;50.868;4.700;2023-05-07T12:10:42;4.27;;;2.53;;
12554;SDS011;6343;50.868;4.700;2023-05-07T12:13:18;2.17;;;1.43;;
12554;SDS011;6343;50.868;4.700;2023-05-07T12:15:45;4.40;;;2.67;;
12554;SDS011;6343;50.868;4.700;2023-05-07T12:18:11;4.70;;;1.83;;
12554;SDS011;6343;50.868;4.700;2023-05-07T12:20:38;2.27;;;1.70;;
12554;SDS011;6343;50.868;4.700;2023-05-07T12:23:04;5.37;;;1.60;;
12554;SDS011;6343;50.868;4.700;2023-05-07T12:25:34;3.23;;;1.53;;
12554;SDS011;6343;50.868;4.700;2023-05-07T12:28:01;5.00;;;1.70;;
12554;SDS011;6343;50.868;4.700;2023-05-07T12:30:28;3.07;;;1.57;;
12554;SDS011;6343;50.868;4.700;2023-05-07T12:32:54;3.93;;;1.80;;
12554;SDS011;6343;50.868;4.700;2023-05-07T12:35:30;6.77;;;2.10;;
12554;SDS011;6343;50.868;4.700;2023-05-07T12:37:57;2.73;;;1.90;;
12554;SDS011;6343;50.868;4.700;2023-05-07T12:40:33;5.27;;;1.90;;
12554;SDS011;6343;50.868;4.700;2023-05-07T12:43:00;2.93;;;1.67;;
12554;SDS011;6343;50.868;4.700;2023-05-07T12:45:26;5.27;;;1.87;;
12554;SDS011;6343;50.868;4.700;2023-05-07T12:47:53;7.63;;;1.77;;
12554;SDS011;6343;50.868;4.700;2023-05-07T12:50:19;4.70;;;1.73;;
12554;SDS011;6343;50.868;4.700;2023-05-07T12:52:49;3.20;;;1.97;;
12554;SDS011;6343;50.868;4.700;2023-05-07T12:55:15;4.93;;;1.93;;
12554;SDS011;6343;50.868;4.700;2023-05-07T12:57:48;4.60;;;1.73;;
12554;SDS011;6343;50.868;4.700;2023-05-07T13:00:16;3.20;;;1.80;;
12554;SDS011;6343;50.868;4.700;2023-05-07T13:02:42;3.60;;;1.70;;
12554;SDS011;6343;50.868;4.700;2023-05-07T13:05:12;9.50;;;2.03;;
12554;SDS011;6343;50.868;4.700;2023-05-07T13:07:38;4.40;;;1.90;;
12554;SDS011;6343;50.868;4.700;2023-05-07T13:10:05;2.77;;;1.77;;
12554;SDS011;6343;50.868;4.700;2023-05-07T13:12:32;3.90;;;1.83;;
12554;SDS011;6343;50.868;4.700;2023-05-07T13:14:58;3.00;;;1.83;;
12554;SDS011;6343;50.868;4.700;2023-05-07T13:17:24;2.40;;;1.67;;
12554;SDS011;6343;50.868;4.700;2023-05-07T13:19:50;6.23;;;1.67;;
12554;SDS011;6343;50.868;4.700;2023-05-07T13:22:16;3.40;;;1.90;;
12554;SDS011;6343;50.868;4.700;2023-05-07T13:24:42;3.30;;;1.80;;
12554;SDS011;6343;50.868;4.700;2023-05-07T13:27:08;2.40;;;1.80;;
12554;SDS011;6343;50.868;4.700;2023-05-07T13:29:34;3.73;;;1.60;;
12554;SDS011;6343;50.868;4.700;2023-05-07T13:32:00;3.13;;;1.90;;
12554;SDS011;6343;50.868;4.700;2023-05-07T13:34:27;7.10;;;1.77;;
12554;SDS011;6343;50.868;4.700;2023-05-07T13:36:53;2.67;;;1.73;;
12554;SDS011;6343;50.868;4.700;2023-05-07T13:39:20;4.03;;;2.10;;
12554;SDS011;6343;50.868;4.700;2023-05-07T13:41:46;2.33;;;1.73;;
12554;SDS011;6343;50.868;4.700;2023-05-07T13:44:12;4.90;;;2.10;;
12554;SDS011;6343;50.868;4.700;2023-05-07T13:46:38;3.73;;;1.97;;
12554;SDS011;6343;50.868;4.700;2023-05-07T13:49:05;4.90;;;2.23;;
12554;SDS011;6343;50.868;4.700;2023-05-07T13:51:31;4.37;;;2.10;;
12554;SDS011;6343;50.868;4.700;2023-05-07T13:53:57;4.20;;;2.13;;
12554;SDS011;6343;50.868;4.700;2023-05-07T13:56:23;5.67;;;2.27;;
12554;SDS011;6343;50.868;4.700;2023-05-07T13:58:49;5.17;;;2.10;;
12554;SDS011;6343;50.868;4.700;2023-05-07T14:01:15;4.20;;;1.93;;
12554;SDS011;6343;50.868;4.700;2023-05-07T14:03:42;6.10;;;2.00;;
12554;SDS011;6343;50.868;4.700;2023-05-07T14:06:08;4.87;;;2.07;;
12554;SDS011;6343;50.868;4.700;2023-05-07T14:08:34;3.60;;;2.07;;
12554;SDS011;6343;50.868;4.700;2023-05-07T14:11:00;5.10;;;2.10;;
12554;SDS011;6343;50.868;4.700;2023-05-07T14:13:26;3.90;;;2.10;;
12554;SDS011;6343;50.868;4.700;2023-05-07T14:15:52;4.77;;;2.63;;
12554;SDS011;6343;50.868;4.700;2023-05-07T14:18:18;3.70;;;2.13;;
12554;SDS011;6343;50.868;4.700;2023-05-07T14:20:45;4.23;;;2.10;;
12554;SDS011;6343;50.868;4.700;2023-05-07T14:23:12;3.57;;;2.20;;
12554;SDS011;6343;50.868;4.700;2023-05-07T14:25:39;3.63;;;2.23;;
12554;SDS011;6343;50.868;4.700;2023-05-07T14:28:05;5.33;;;2.40;;
12554;SDS011;6343;50.868;4.700;2023-05-07T14:30:31;4.90;;;2.20;;
12554;SDS011;6343;50.868;4.700;2023-05-07T14:32:57;4.27;;;2.70;;
12554;SDS011;6343;50.868;4.700;2023-05-07T14:35:23;4.27;;;2.37;;
12554;SDS011;6343;50.868;4.700;2023-05-07T14:37:49;4.63;;;2.23;;
12554;SDS011;6343;50.868;4.700;2023-05-07T14:40:15;3.70;;;2.20;;
12554;SDS011;6343;50.868;4.700;2023-05-07T14:42:41;3.83;;;2.30;;
12554;SDS011;6343;50.868;4.700;2023-05-07T14:45:08;3.80;;;2.20;;
12554;SDS011;6343;50.868;4.700;2023-05-07T14:47:34;2.73;;;2.00;;
12554;SDS011;6343;50.868;4.700;2023-05-07T14:50:00;2.10;;;1.73;;
12554;SDS011;6343;50.868;4.700;2023-05-07T14:52:26;3.30;;;2.53;;
12554;SDS011;6343;50.868;4.700;2023-05-07T14:54:53;3.33;;;2.50;;
12554;SDS011;6343;50.868;4.700;2023-05-07T14:57:19;5.50;;;2.23;;
12554;SDS011;6343;50.868;4.700;2023-05-07T14:59:45;3.77;;;2.30;;
12554;SDS011;6343;50.868;4.700;2023-05-07T15:02:12;2.93;;;2.10;;
12554;SDS011;6343;50.868;4.700;2023-05-07T15:04:38;3.37;;;2.70;;
12554;SDS011;6343;50.868;4.700;2023-05-07T15:07:14;4.73;;;2.50;;